sensor_id;sensor_type;location;lat;lon;timestamp;pressure;altitude;pressure_sealevel;temperature;humidity
62600;BME280;48671;48.922;2.346;2023-07-28T01:27:34;100651.63;;;21.90;68.99
62600;BME280;48671;48.922;2.346;2023-07-28T01:30:21;100654.56;;;21.97;68.71
62600;BME280;48671;48.922;2.346;2023-07-28T02:06:34;100617.56;;;21.76;68.90
62600;BME280;48671;48.922;2.346;2023-07-28T02:09:00;100611.03;;;21.80;69.32
62600;BME280;48671;48.922;2.346;2023-07-28T02:11:25;100622.19;;;21.84;68.85
62600;BME280;48671;48.922;2.346;2023-07-28T02:14:10;100631.16;;;21.92;68.83
62600;BME280;48671;48.922;2.346;2023-07-28T02:17:01;100626.84;;;21.91;68.84
62600;BME280;48671;48.922;2.346;2023-07-28T02:20:04;100620.72;;;21.91;69.10
62600;BME280;48671;48.922;2.346;2023-07-28T02:22:43;100610.78;;;21.93;68.55
62600;BME280;48671;48.922;2.346;2023-07-28T02:31:43;100612.72;;;21.81;69.25
62600;BME280;48671;48.922;2.346;2023-07-28T02:52:50;100608.16;;;21.93;68.41
62600;BME280;48671;48.922;2.346;2023-07-28T03:05:40;100611.63;;;21.93;68.64
62600;BME280;48671;48.922;2.346;2023-07-28T03:44:18;100621.69;;;22.00;68.82
62600;BME280;48671;48.922;2.346;2023-07-28T03:46:44;100627.16;;;22.08;68.89
62600;BME280;48671;48.922;2.346;2023-07-28T03:49:10;100633.34;;;22.18;68.92
62600;BME280;48671;48.922;2.346;2023-07-28T03:51:35;100608.72;;;22.06;68.65
62600;BME280;48671;48.922;2.346;2023-07-28T03:54:04;100612.38;;;22.05;68.93
62600;BME280;48671;48.922;2.346;2023-07-28T03:56:32;100618.06;;;22.10;68.68
62600;BME280;48671;48.922;2.346;2023-07-28T03:58:57;100599.38;;;22.02;69.03
62600;BME280;48671;48.922;2.346;2023-07-28T04:01:27;100605.53;;;22.03;69.05
62600;BME280;48671;48.922;2.346;2023-07-28T04:04:23;100601.63;;;22.07;69.07
62600;BME280;48671;48.922;2.346;2023-07-28T04:07:13;100605.69;;;22.01;69.86
62600;BME280;48671;48.922;2.346;2023-07-28T04:09:46;100602.31;;;21.99;69.27
62600;BME280;48671;48.922;2.346;2023-07-28T04:20:16;100607.09;;;22.15;70.82
62600;BME280;48671;48.922;2.346;2023-07-28T04:28:17;100623.97;;;22.14;70.27
62600;BME280;48671;48.922;2.346;2023-07-28T04:30:45;100620.59;;;22.12;70.83
62600;BME280;48671;48.922;2.346;2023-07-28T04:33:10;100590.59;;;21.92;71.14
62600;BME280;48671;48.922;2.346;2023-07-28T04:35:36;100611.66;;;22.03;70.91
62600;BME280;48671;48.922;2.346;2023-07-28T04:38:01;100596.19;;;21.98;71.33
62600;BME280;48671;48.922;2.346;2023-07-28T04:40:27;100604.69;;;22.02;71.57
62600;BME280;48671;48.922;2.346;2023-07-28T04:42:52;100600.91;;;21.95;70.86
62600;BME280;48671;48.922;2.346;2023-07-28T04:45:18;100617.09;;;22.02;71.72
62600;BME280;48671;48.922;2.346;2023-07-28T04:47:46;100634.13;;;22.09;71.60
62600;BME280;48671;48.922;2.346;2023-07-28T04:50:12;100634.97;;;22.09;72.54
62600;BME280;48671;48.922;2.346;2023-07-28T04:52:40;100608.97;;;21.93;71.29
62600;BME280;48671;48.922;2.346;2023-07-28T04:55:06;100611.50;;;21.95;71.44
62600;BME280;48671;48.922;2.346;2023-07-28T04:57:31;100621.13;;;21.96;71.51
62600;BME280;48671;48.922;2.346;2023-07-28T04:59:57;100632.00;;;22.03;71.66
62600;BME280;48671;48.922;2.346;2023-07-28T05:02:22;100641.50;;;22.05;71.49
62600;BME280;48671;48.922;2.346;2023-07-28T05:04:48;100624.34;;;22.00;71.74
62600;BME280;48671;48.922;2.346;2023-07-28T05:07:13;100620.13;;;21.97;71.73
62600;BME280;48671;48.922;2.346;2023-07-28T05:09:45;100613.31;;;21.94;72.17
62600;BME280;48671;48.922;2.346;2023-07-28T05:12:13;100615.81;;;21.96;72.01
62600;BME280;48671;48.922;2.346;2023-07-28T05:14:39;100629.25;;;22.04;71.96
62600;BME280;48671;48.922;2.346;2023-07-28T05:17:05;100634.38;;;21.96;73.12
62600;BME280;48671;48.922;2.346;2023-07-28T05:19:31;100639.25;;;22.01;72.83
62600;BME280;48671;48.922;2.346;2023-07-28T05:21:56;100619.16;;;21.88;73.13
62600;BME280;48671;48.922;2.346;2023-07-28T05:24:25;100633.56;;;22.05;72.27
62600;BME280;48671;48.922;2.346;2023-07-28T05:26:51;100609.97;;;21.92;72.64
62600;BME280;48671;48.922;2.346;2023-07-28T05:29:19;100618.91;;;22.01;71.91
62600;BME280;48671;48.922;2.346;2023-07-28T05:31:46;100604.97;;;21.99;72.10
62600;BME280;48671;48.922;2.346;2023-07-28T05:34:22;100618.19;;;21.99;73.63
62600;BME280;48671;48.922;2.346;2023-07-28T05:36:57;100639.84;;;22.04;71.72
62600;BME280;48671;48.922;2.346;2023-07-28T05:39:24;100630.75;;;22.07;71.96
62600;BME280;48671;48.922;2.346;2023-07-28T05:41:50;100630.09;;;22.05;72.97
62600;BME280;48671;48.922;2.346;2023-07-28T05:44:15;100625.63;;;22.05;72.26
62600;BME280;48671;48.922;2.346;2023-07-28T05:46:40;100630.75;;;22.07;71.66
62600;BME280;48671;48.922;2.346;2023-07-28T05:49:06;100637.94;;;22.16;72.19
62600;BME280;48671;48.922;2.346;2023-07-28T05:51:31;100634.03;;;22.20;71.83
62600;BME280;48671;48.922;2.346;2023-07-28T05:53:57;100638.50;;;22.19;72.33
62600;BME280;48671;48.922;2.346;2023-07-28T05:56:22;100641.41;;;22.16;72.21
62600;BME280;48671;48.922;2.346;2023-07-28T05:58:48;100615.28;;;22.02;71.92
62600;BME280;48671;48.922;2.346;2023-07-28T06:01:13;100638.72;;;22.07;72.78
62600;BME280;48671;48.922;2.346;2023-07-28T06:03:39;100649.19;;;22.08;73.19
62600;BME280;48671;48.922;2.346;2023-07-28T06:06:05;100646.81;;;22.05;73.79
62600;BME280;48671;48.922;2.346;2023-07-28T06:08:30;100645.81;;;22.06;72.63
62600;BME280;48671;48.922;2.346;2023-07-28T06:10:55;100646.81;;;22.05;72.79
62600;BME280;48671;48.922;2.346;2023-07-28T06:13:21;100648.34;;;22.08;72.82
62600;BME280;48671;48.922;2.346;2023-07-28T06:15:47;100658.81;;;22.09;73.43
62600;BME280;48671;48.922;2.346;2023-07-28T06:18:12;100638.41;;;22.00;73.29
62600;BME280;48671;48.922;2.346;2023-07-28T06:20:41;100648.09;;;22.11;72.62
62600;BME280;48671;48.922;2.346;2023-07-28T06:23:07;100643.47;;;22.13;72.88
62600;BME280;48671;48.922;2.346;2023-07-28T06:25:32;100637.50;;;22.11;72.92
62600;BME280;48671;48.922;2.346;2023-07-28T06:27:57;100650.09;;;22.18;73.02
62600;BME280;48671;48.922;2.346;2023-07-28T06:30:25;100655.22;;;22.20;72.93
62600;BME280;48671;48.922;2.346;2023-07-28T06:32:51;100659.00;;;22.17;73.13
62600;BME280;48671;48.922;2.346;2023-07-28T06:35:16;100657.44;;;22.15;72.76
62600;BME280;48671;48.922;2.346;2023-07-28T06:37:42;100653.50;;;22.09;72.90
62600;BME280;48671;48.922;2.346;2023-07-28T06:40:08;100658.16;;;22.17;73.19
62600;BME280;48671;48.922;2.346;2023-07-28T06:42:35;100675.34;;;22.23;73.00
62600;BME280;48671;48.922;2.346;2023-07-28T06:45:02;100665.84;;;22.20;73.34
62600;BME280;48671;48.922;2.346;2023-07-28T06:47:28;100653.38;;;22.11;72.32
62600;BME280;48671;48.922;2.346;2023-07-28T06:49:53;100677.28;;;22.20;73.02
62600;BME280;48671;48.922;2.346;2023-07-28T06:52:23;100670.75;;;22.25;72.71
62600;BME280;48671;48.922;2.346;2023-07-28T06:54:54;100668.38;;;22.22;73.02
62600;BME280;48671;48.922;2.346;2023-07-28T06:57:22;100658.88;;;22.19;72.72
62600;BME280;48671;48.922;2.346;2023-07-28T06:59:48;100655.38;;;22.18;72.77
62600;BME280;48671;48.922;2.346;2023-07-28T07:02:13;100674.94;;;22.27;72.79
62600;BME280;48671;48.922;2.346;2023-07-28T07:04:39;100656.09;;;22.20;73.15
62600;BME280;48671;48.922;2.346;2023-07-28T07:07:04;100699.09;;;22.34;72.49
62600;BME280;48671;48.922;2.346;2023-07-28T07:09:30;100676.72;;;22.27;73.08
62600;BME280;48671;48.922;2.346;2023-07-28T07:11:58;100681.75;;;22.30;72.67
62600;BME280;48671;48.922;2.346;2023-07-28T07:14:23;100686.41;;;22.37;72.81
62600;BME280;48671;48.922;2.346;2023-07-28T07:16:49;100692.00;;;22.44;72.81
62600;BME280;48671;48.922;2.346;2023-07-28T07:19:14;100685.97;;;22.42;72.48
62600;BME280;48671;48.922;2.346;2023-07-28T07:21:41;100689.19;;;22.46;72.37
62600;BME280;48671;48.922;2.346;2023-07-28T07:24:07;100698.13;;;22.44;73.11
62600;BME280;48671;48.922;2.346;2023-07-28T07:26:32;100699.78;;;22.46;73.01
62600;BME280;48671;48.922;2.346;2023-07-28T07:28:58;100705.38;;;22.42;73.06
62600;BME280;48671;48.922;2.346;2023-07-28T07:31:23;100699.09;;;22.34;74.49
62600;BME280;48671;48.922;2.346;2023-07-28T07:33:49;100715.56;;;22.37;73.94
62600;BME280;48671;48.922;2.346;2023-07-28T07:36:16;100697.06;;;22.16;75.22
62600;BME280;48671;48.922;2.346;2023-07-28T07:38:42;100702.25;;;22.18;74.60
62600;BME280;48671;48.922;2.346;2023-07-28T07:41:11;100698.16;;;22.14;75.89
62600;BME280;48671;48.922;2.346;2023-07-28T07:43:38;100716.44;;;22.17;75.74
62600;BME280;48671;48.922;2.346;2023-07-28T07:46:03;100716.44;;;22.17;76.07
62600;BME280;48671;48.922;2.346;2023-07-28T07:48:29;100717.38;;;22.06;76.96
62600;BME280;48671;48.922;2.346;2023-07-28T07:51:01;100712.34;;;22.03;76.27
62600;BME280;48671;48.922;2.346;2023-07-28T07:53:26;100717.78;;;22.02;77.04
62600;BME280;48671;48.922;2.346;2023-07-28T07:55:52;100710.78;;;22.01;77.12
62600;BME280;48671;48.922;2.346;2023-07-28T07:58:20;100725.47;;;22.05;78.89
62600;BME280;48671;48.922;2.346;2023-07-28T08:00:46;100712.03;;;21.96;77.95
62600;BME280;48671;48.922;2.346;2023-07-28T08:03:14;100709.25;;;21.98;77.33
62600;BME280;48671;48.922;2.346;2023-07-28T08:05:40;100723.81;;;22.13;77.30
62600;BME280;48671;48.922;2.346;2023-07-28T08:08:05;100727.44;;;22.12;77.69
62600;BME280;48671;48.922;2.346;2023-07-28T08:10:32;100726.34;;;22.15;78.32
62600;BME280;48671;48.922;2.346;2023-07-28T08:12:58;100721.03;;;22.15;77.44
62600;BME280;48671;48.922;2.346;2023-07-28T08:15:24;100714.78;;;22.16;78.00
62600;BME280;48671;48.922;2.346;2023-07-28T08:17:50;100725.13;;;22.19;78.34
62600;BME280;48671;48.922;2.346;2023-07-28T08:20:16;100723.19;;;22.21;77.78
62600;BME280;48671;48.922;2.346;2023-07-28T08:22:41;100718.38;;;22.15;77.85
62600;BME280;48671;48.922;2.346;2023-07-28T08:25:07;100708.78;;;22.14;77.85
62600;BME280;48671;48.922;2.346;2023-07-28T08:27:33;100708.78;;;22.14;78.37
62600;BME280;48671;48.922;2.346;2023-07-28T08:29:59;100729.75;;;22.27;80.13
62600;BME280;48671;48.922;2.346;2023-07-28T08:32:24;100717.72;;;22.23;78.78
62600;BME280;48671;48.922;2.346;2023-07-28T08:34:49;100721.66;;;22.28;78.25
62600;BME280;48671;48.922;2.346;2023-07-28T08:37:15;100719.88;;;22.38;77.46
62600;BME280;48671;48.922;2.346;2023-07-28T08:39:40;100723.66;;;22.46;77.05
62600;BME280;48671;48.922;2.346;2023-07-28T08:42:05;100735.97;;;22.56;77.27
62600;BME280;48671;48.922;2.346;2023-07-28T08:44:32;100736.09;;;22.55;76.89
62600;BME280;48671;48.922;2.346;2023-07-28T08:47:03;100729.25;;;22.52;77.36
62600;BME280;48671;48.922;2.346;2023-07-28T08:49:29;100732.34;;;22.57;77.01
62600;BME280;48671;48.922;2.346;2023-07-28T08:51:59;100743.53;;;22.61;77.57
62600;BME280;48671;48.922;2.346;2023-07-28T08:54:24;100739.31;;;22.58;77.24
62600;BME280;48671;48.922;2.346;2023-07-28T08:56:50;100734.72;;;22.60;76.49
62600;BME280;48671;48.922;2.346;2023-07-28T08:59:27;100742.41;;;22.63;77.68
62600;BME280;48671;48.922;2.346;2023-07-28T09:01:54;100714.63;;;22.58;76.28
62600;BME280;48671;48.922;2.346;2023-07-28T09:04:21;100736.84;;;22.76;77.01
62600;BME280;48671;48.922;2.346;2023-07-28T09:06:48;100739.56;;;22.96;76.64
62600;BME280;48671;48.922;2.346;2023-07-28T09:09:15;100740.94;;;23.00;76.14
62600;BME280;48671;48.922;2.346;2023-07-28T09:11:51;100741.63;;;23.02;75.67
62600;BME280;48671;48.922;2.346;2023-07-28T09:14:18;100747.94;;;23.10;75.65
62600;BME280;48671;48.922;2.346;2023-07-28T09:16:44;100756.16;;;23.17;76.35
62600;BME280;48671;48.922;2.346;2023-07-28T09:19:09;100739.97;;;23.20;75.90
62600;BME280;48671;48.922;2.346;2023-07-28T09:21:35;100755.06;;;23.29;74.36
62600;BME280;48671;48.922;2.346;2023-07-28T09:24:06;100738.41;;;23.27;74.01
62600;BME280;48671;48.922;2.346;2023-07-28T09:26:45;100749.47;;;23.32;74.43
62600;BME280;48671;48.922;2.346;2023-07-28T09:29:18;100757.44;;;23.32;74.31
62600;BME280;48671;48.922;2.346;2023-07-28T09:31:49;100751.97;;;23.24;74.15
62600;BME280;48671;48.922;2.346;2023-07-28T09:34:27;100752.97;;;23.23;74.66
62600;BME280;48671;48.922;2.346;2023-07-28T09:36:54;100755.06;;;23.20;74.92
62600;BME280;48671;48.922;2.346;2023-07-28T09:39:22;100751.84;;;23.26;75.28
62600;BME280;48671;48.922;2.346;2023-07-28T09:44:50;100751.69;;;23.18;74.38
62600;BME280;48671;48.922;2.346;2023-07-28T09:47:19;100730.47;;;23.08;74.59
62600;BME280;48671;48.922;2.346;2023-07-28T09:49:48;100733.00;;;23.09;75.16
62600;BME280;48671;48.922;2.346;2023-07-28T09:52:46;100748.19;;;23.36;75.87
62600;BME280;48671;48.922;2.346;2023-07-28T10:00:55;100723.16;;;23.58;74.02
62600;BME280;48671;48.922;2.346;2023-07-28T10:03:21;100735.56;;;23.68;73.56
62600;BME280;48671;48.922;2.346;2023-07-28T10:08:22;100720.75;;;23.65;73.95
62600;BME280;48671;48.922;2.346;2023-07-28T10:10:48;100736.25;;;23.79;73.02
62600;BME280;48671;48.922;2.346;2023-07-28T10:13:21;100727.03;;;23.64;72.81
62600;BME280;48671;48.922;2.346;2023-07-28T10:15:47;100733.88;;;23.67;74.10
62600;BME280;48671;48.922;2.346;2023-07-28T10:18:14;100723.84;;;23.70;73.10
62600;BME280;48671;48.922;2.346;2023-07-28T10:20:42;100720.50;;;23.68;72.57
62600;BME280;48671;48.922;2.346;2023-07-28T10:31:12;100712.75;;;24.49;71.40
62600;BME280;48671;48.922;2.346;2023-07-28T10:52:29;100700.16;;;25.49;68.15
62600;BME280;48671;48.922;2.346;2023-07-28T11:02:47;100694.81;;;25.23;65.87
62600;BME280;48671;48.922;2.346;2023-07-28T11:05:31;100686.19;;;25.11;66.20
62600;BME280;48671;48.922;2.346;2023-07-28T11:07:59;100699.41;;;25.13;67.13
62600;BME280;48671;48.922;2.346;2023-07-28T11:10:28;100698.84;;;25.09;67.68
62600;BME280;48671;48.922;2.346;2023-07-28T11:13:00;100690.84;;;25.09;66.95
62600;BME280;48671;48.922;2.346;2023-07-28T11:15:29;100710.78;;;25.23;67.51
62600;BME280;48671;48.922;2.346;2023-07-28T11:18:06;100678.63;;;25.16;67.10
62600;BME280;48671;48.922;2.346;2023-07-28T11:20:34;100693.38;;;25.29;66.48
62600;BME280;48671;48.922;2.346;2023-07-28T11:25:35;100686.13;;;25.21;66.77
62600;BME280;48671;48.922;2.346;2023-07-28T11:28:02;100713.84;;;25.28;67.11
62600;BME280;48671;48.922;2.346;2023-07-28T11:30:31;100696.47;;;25.06;68.07
62600;BME280;48671;48.922;2.346;2023-07-28T11:32:57;100697.63;;;25.04;70.80
62600;BME280;48671;48.922;2.346;2023-07-28T11:35:23;100687.16;;;25.02;72.20
62600;BME280;48671;48.922;2.346;2023-07-28T11:37:50;100687.44;;;24.99;70.86
62600;BME280;48671;48.922;2.346;2023-07-28T11:40:19;100681.13;;;25.00;71.24
62600;BME280;48671;48.922;2.346;2023-07-28T11:42:47;100674.25;;;25.33;70.58
62600;BME280;48671;48.922;2.346;2023-07-28T11:45:13;100680.91;;;25.63;75.72
62600;BME280;48671;48.922;2.346;2023-07-28T11:48:00;100682.28;;;25.94;69.90
62600;BME280;48671;48.922;2.346;2023-07-28T11:50:31;100678.34;;;26.14;69.83
62600;BME280;48671;48.922;2.346;2023-07-28T11:52:59;100676.38;;;26.24;69.01
62600;BME280;48671;48.922;2.346;2023-07-28T11:55:24;100671.91;;;26.33;65.39
62600;BME280;48671;48.922;2.346;2023-07-28T11:57:51;100674.84;;;26.64;68.11
62600;BME280;48671;48.922;2.346;2023-07-28T12:00:17;100658.69;;;26.82;66.58
62600;BME280;48671;48.922;2.346;2023-07-28T12:02:44;100668.19;;;27.09;64.72
62600;BME280;48671;48.922;2.346;2023-07-28T12:05:16;100659.31;;;27.00;63.24
62600;BME280;48671;48.922;2.346;2023-07-28T12:07:47;100666.19;;;27.03;64.08
62600;BME280;48671;48.922;2.346;2023-07-28T12:10:13;100647.66;;;26.93;64.56
62600;BME280;48671;48.922;2.346;2023-07-28T12:12:44;100656.34;;;26.95;64.43
62600;BME280;48671;48.922;2.346;2023-07-28T12:21:09;100657.16;;;26.71;64.82
62600;BME280;48671;48.922;2.346;2023-07-28T12:23:31;100653.31;;;26.57;64.69
62600;BME280;48671;48.922;2.346;2023-07-28T12:26:00;100644.66;;;26.55;66.42
62600;BME280;48671;48.922;2.346;2023-07-28T12:29:18;100642.63;;;26.57;64.51
62600;BME280;48671;48.922;2.346;2023-07-28T12:32:07;100640.78;;;26.58;63.54
62600;BME280;48671;48.922;2.346;2023-07-28T12:34:37;100637.81;;;26.85;63.07
62600;BME280;48671;48.922;2.346;2023-07-28T12:37:09;100661.47;;;27.46;62.33
62600;BME280;48671;48.922;2.346;2023-07-28T12:39:38;100649.06;;;27.77;59.43
62600;BME280;48671;48.922;2.346;2023-07-28T12:42:11;100645.88;;;27.66;60.33
62600;BME280;48671;48.922;2.346;2023-07-28T12:44:37;100646.59;;;27.51;58.93
62600;BME280;48671;48.922;2.346;2023-07-28T12:47:06;100634.09;;;27.44;60.80
62600;BME280;48671;48.922;2.346;2023-07-28T12:49:31;100648.66;;;27.25;60.34
62600;BME280;48671;48.922;2.346;2023-07-28T12:52:00;100655.16;;;27.06;59.82
62600;BME280;48671;48.922;2.346;2023-07-28T12:54:25;100659.34;;;26.76;62.15
62600;BME280;48671;48.922;2.346;2023-07-28T12:56:51;100657.34;;;26.70;62.61
62600;BME280;48671;48.922;2.346;2023-07-28T12:59:17;100668.31;;;26.50;63.93
62600;BME280;48671;48.922;2.346;2023-07-28T13:01:42;100671.94;;;26.41;63.80
62600;BME280;48671;48.922;2.346;2023-07-28T13:04:11;100669.00;;;26.60;65.94
62600;BME280;48671;48.922;2.346;2023-07-28T13:06:40;100639.31;;;26.96;66.33
62600;BME280;48671;48.922;2.346;2023-07-28T13:09:06;100656.28;;;27.52;65.43
62600;BME280;48671;48.922;2.346;2023-07-28T13:11:33;100652.22;;;27.81;63.08
62600;BME280;48671;48.922;2.346;2023-07-28T13:13:58;100659.13;;;27.98;63.48
62600;BME280;48671;48.922;2.346;2023-07-28T13:16:24;100630.53;;;28.07;63.85
62600;BME280;48671;48.922;2.346;2023-07-28T13:18:49;100635.91;;;28.61;62.88
62600;BME280;48671;48.922;2.346;2023-07-28T13:21:14;100634.75;;;29.02;62.30
62600;BME280;48671;48.922;2.346;2023-07-28T13:23:40;100637.91;;;29.20;59.92
62600;BME280;48671;48.922;2.346;2023-07-28T13:26:05;100619.16;;;29.35;58.28
62600;BME280;48671;48.922;2.346;2023-07-28T13:28:31;100634.81;;;29.61;58.58
62600;BME280;48671;48.922;2.346;2023-07-28T13:31:02;100635.72;;;29.68;54.09
62600;BME280;48671;48.922;2.346;2023-07-28T13:33:28;100640.06;;;29.99;56.63
62600;BME280;48671;48.922;2.346;2023-07-28T13:35:56;100618.84;;;30.04;53.45
62600;BME280;48671;48.922;2.346;2023-07-28T13:38:22;100640.19;;;29.76;53.56
62600;BME280;48671;48.922;2.346;2023-07-28T13:40:47;100631.91;;;29.33;54.46
62600;BME280;48671;48.922;2.346;2023-07-28T13:43:12;100642.28;;;28.98;55.04
62600;BME280;48671;48.922;2.346;2023-07-28T13:45:38;100638.81;;;28.52;55.06
62600;BME280;48671;48.922;2.346;2023-07-28T13:48:03;100636.03;;;28.06;56.33
62600;BME280;48671;48.922;2.346;2023-07-28T13:50:29;100626.00;;;27.76;57.10
62600;BME280;48671;48.922;2.346;2023-07-28T13:52:54;100622.06;;;27.48;57.61
62600;BME280;48671;48.922;2.346;2023-07-28T13:55:20;100630.94;;;27.32;59.19
62600;BME280;48671;48.922;2.346;2023-07-28T13:57:45;100626.78;;;27.05;61.03
62600;BME280;48671;48.922;2.346;2023-07-28T14:00:11;100634.31;;;26.85;62.26
62600;BME280;48671;48.922;2.346;2023-07-28T14:02:38;100647.16;;;26.73;64.13
62600;BME280;48671;48.922;2.346;2023-07-28T14:05:04;100639.31;;;26.80;62.95
62600;BME280;48671;48.922;2.346;2023-07-28T14:07:30;100624.47;;;26.77;63.93
62600;BME280;48671;48.922;2.346;2023-07-28T14:09:56;100637.31;;;26.74;63.66
62600;BME280;48671;48.922;2.346;2023-07-28T14:12:21;100655.16;;;26.73;64.24
62600;BME280;48671;48.922;2.346;2023-07-28T14:14:46;100646.47;;;26.63;63.57
62600;BME280;48671;48.922;2.346;2023-07-28T14:17:12;100636.97;;;26.60;63.37
62600;BME280;48671;48.922;2.346;2023-07-28T14:19:38;100638.47;;;26.55;63.74
62600;BME280;48671;48.922;2.346;2023-07-28T14:22:05;100633.09;;;26.47;64.03
62600;BME280;48671;48.922;2.346;2023-07-28T14:24:30;100667.09;;;26.45;65.43
62600;BME280;48671;48.922;2.346;2023-07-28T14:26:55;100682.59;;;26.41;65.18
62600;BME280;48671;48.922;2.346;2023-07-28T14:29:21;100666.09;;;26.29;65.99
62600;BME280;48671;48.922;2.346;2023-07-28T14:31:47;100668.06;;;26.27;65.76
62600;BME280;48671;48.922;2.346;2023-07-28T14:34:12;100671.25;;;26.31;65.65
62600;BME280;48671;48.922;2.346;2023-07-28T14:36:38;100662.31;;;26.56;67.80
62600;BME280;48671;48.922;2.346;2023-07-28T14:39:03;100658.69;;;26.82;66.98
62600;BME280;48671;48.922;2.346;2023-07-28T14:41:29;100672.69;;;26.92;65.89
62600;BME280;48671;48.922;2.346;2023-07-28T14:43:54;100671.38;;;26.88;64.80
62600;BME280;48671;48.922;2.346;2023-07-28T14:46:19;100675.03;;;26.79;65.38
62600;BME280;48671;48.922;2.346;2023-07-28T14:48:47;100692.72;;;26.72;64.39
62600;BME280;48671;48.922;2.346;2023-07-28T14:51:13;100687.69;;;26.69;65.17
62600;BME280;48671;48.922;2.346;2023-07-28T14:53:38;100672.50;;;26.61;63.94
62600;BME280;48671;48.922;2.346;2023-07-28T14:56:05;100670.81;;;26.52;65.63
62600;BME280;48671;48.922;2.346;2023-07-28T14:58:31;100659.41;;;26.42;66.37
62600;BME280;48671;48.922;2.346;2023-07-28T15:00:57;100659.75;;;26.30;64.70
62600;BME280;48671;48.922;2.346;2023-07-28T15:03:26;100658.22;;;26.20;64.45
62600;BME280;48671;48.922;2.346;2023-07-28T15:05:51;100659.69;;;26.14;63.70
62600;BME280;48671;48.922;2.346;2023-07-28T15:08:17;100651.63;;;25.98;64.84
62600;BME280;48671;48.922;2.346;2023-07-28T15:10:42;100657.94;;;25.88;65.43
62600;BME280;48671;48.922;2.346;2023-07-28T15:13:08;100662.56;;;25.86;65.46
62600;BME280;48671;48.922;2.346;2023-07-28T15:15:33;100674.72;;;25.81;65.95
62600;BME280;48671;48.922;2.346;2023-07-28T15:17:59;100690.41;;;25.84;66.97
62600;BME280;48671;48.922;2.346;2023-07-28T15:20:24;100692.16;;;25.75;66.00
62600;BME280;48671;48.922;2.346;2023-07-28T15:22:49;100672.56;;;25.58;66.53
62600;BME280;48671;48.922;2.346;2023-07-28T15:25:15;100685.41;;;25.63;66.83
62600;BME280;48671;48.922;2.346;2023-07-28T15:27:40;100679.75;;;25.58;67.89
62600;BME280;48671;48.922;2.346;2023-07-28T15:30:07;100678.09;;;25.65;67.54
62600;BME280;48671;48.922;2.346;2023-07-28T15:32:34;100665.91;;;25.54;67.69
62600;BME280;48671;48.922;2.346;2023-07-28T15:34:59;100659.25;;;25.58;68.21
62600;BME280;48671;48.922;2.346;2023-07-28T15:37:25;100653.63;;;25.61;69.24
62600;BME280;48671;48.922;2.346;2023-07-28T15:39:50;100652.50;;;25.72;69.27
62600;BME280;48671;48.922;2.346;2023-07-28T15:42:15;100651.03;;;25.78;68.96
62600;BME280;48671;48.922;2.346;2023-07-28T15:44:43;100645.53;;;25.79;68.25
62600;BME280;48671;48.922;2.346;2023-07-28T15:47:09;100655.06;;;25.82;67.69
62600;BME280;48671;48.922;2.346;2023-07-28T15:49:34;100645.28;;;25.90;67.45
62600;BME280;48671;48.922;2.346;2023-07-28T15:51:59;100633.28;;;25.95;66.45
62600;BME280;48671;48.922;2.346;2023-07-28T15:54:25;100640.97;;;25.98;66.42
62600;BME280;48671;48.922;2.346;2023-07-28T15:56:50;100627.13;;;25.94;66.41
62600;BME280;48671;48.922;2.346;2023-07-28T15:59:15;100625.81;;;25.98;66.60
62600;BME280;48671;48.922;2.346;2023-07-28T16:01:40;100631.31;;;26.05;67.02
62600;BME280;48671;48.922;2.346;2023-07-28T16:04:06;100628.34;;;26.08;65.86
62600;BME280;48671;48.922;2.346;2023-07-28T16:06:31;100631.81;;;26.00;65.66
62600;BME280;48671;48.922;2.346;2023-07-28T16:08:56;100622.44;;;25.88;65.01
62600;BME280;48671;48.922;2.346;2023-07-28T16:11:22;100623.28;;;25.88;65.33
62600;BME280;48671;48.922;2.346;2023-07-28T16:13:47;100636.97;;;26.02;66.10
62600;BME280;48671;48.922;2.346;2023-07-28T16:16:12;100644.16;;;26.01;65.39
62600;BME280;48671;48.922;2.346;2023-07-28T16:18:38;100632.66;;;26.01;65.79
62600;BME280;48671;48.922;2.346;2023-07-28T16:21:03;100636.97;;;25.94;67.13
62600;BME280;48671;48.922;2.346;2023-07-28T16:23:28;100633.66;;;26.00;67.04
62600;BME280;48671;48.922;2.346;2023-07-28T16:25:54;100636.97;;;26.02;67.65
62600;BME280;48671;48.922;2.346;2023-07-28T16:28:19;100635.00;;;26.04;66.97
62600;BME280;48671;48.922;2.346;2023-07-28T16:30:44;100638.50;;;26.04;67.02
62600;BME280;48671;48.922;2.346;2023-07-28T16:33:10;100631.84;;;26.08;66.76
62600;BME280;48671;48.922;2.346;2023-07-28T16:35:36;100627.31;;;26.01;67.54
62600;BME280;48671;48.922;2.346;2023-07-28T16:38:01;100639.13;;;25.90;68.12
62600;BME280;48671;48.922;2.346;2023-07-28T16:40:28;100625.25;;;25.86;67.76
62600;BME280;48671;48.922;2.346;2023-07-28T16:42:54;100640.78;;;25.91;68.22
62600;BME280;48671;48.922;2.346;2023-07-28T16:45:19;100628.47;;;25.90;67.73
62600;BME280;48671;48.922;2.346;2023-07-28T16:47:45;100637.63;;;25.96;68.43
62600;BME280;48671;48.922;2.346;2023-07-28T16:50:10;100620.09;;;25.85;67.74
62600;BME280;48671;48.922;2.346;2023-07-28T16:52:36;100622.13;;;25.99;68.21
62600;BME280;48671;48.922;2.346;2023-07-28T16:55:02;100618.50;;;26.08;68.21
62600;BME280;48671;48.922;2.346;2023-07-28T16:57:27;100614.00;;;26.09;66.79
62600;BME280;48671;48.922;2.346;2023-07-28T16:59:53;100604.81;;;25.95;66.60
62600;BME280;48671;48.922;2.346;2023-07-28T17:02:18;100616.47;;;25.94;66.09
62600;BME280;48671;48.922;2.346;2023-07-28T17:04:44;100613.44;;;25.81;65.85
62600;BME280;48671;48.922;2.346;2023-07-28T17:07:09;100598.88;;;25.75;66.35
62600;BME280;48671;48.922;2.346;2023-07-28T17:09:35;100612.28;;;25.83;66.21
62600;BME280;48671;48.922;2.346;2023-07-28T17:12:00;100603.09;;;25.86;65.92